createdAt,value
2023-04-17T00:01:05.992Z,77099.72
2023-04-17T00:03:33.665Z,77101.72
2023-04-17T00:06:00.698Z,77095.66
2023-04-17T00:08:28.218Z,77091.59
2023-04-17T00:11:06.544Z,77095.66
2023-04-17T00:13:36.560Z,77091.59
2023-04-17T00:16:03.585Z,77087.53
2023-04-17T00:18:31.186Z,77095.66
2023-04-17T00:20:58.171Z,77097.69
2023-04-17T00:23:26.593Z,77095.66
2023-04-17T00:25:53.658Z,77091.59
2023-04-17T00:28:21.162Z,77083.50
2023-04-17T00:30:48.268Z,77091.59
2023-04-17T00:33:15.785Z,77087.53
2023-04-17T00:35:42.956Z,77091.59
2023-04-17T00:38:10.266Z,77089.56
2023-04-17T00:40:37.713Z,77085.50
2023-04-17T00:43:07.023Z,77091.59
2023-04-17T00:45:34.807Z,77087.53
2023-04-17T00:48:04.802Z,77087.53
2023-04-17T00:50:32.427Z,77087.53
2023-04-17T00:53:00.934Z,77091.59
2023-04-17T00:55:30.824Z,77091.59
2023-04-17T00:57:58.850Z,77095.66
2023-04-17T01:00:26.048Z,77087.53
2023-04-17T01:02:53.769Z,77089.56
2023-04-17T01:05:21.218Z,77097.69
2023-04-17T01:07:48.839Z,77087.53
2023-04-17T01:10:16.111Z,77095.66
2023-04-17T01:12:46.804Z,77083.50
2023-04-17T01:15:14.201Z,77089.56
2023-04-17T01:17:41.795Z,77091.59
2023-04-17T01:20:10.949Z,77091.59
2023-04-17T01:22:38.636Z,77095.66
2023-04-17T01:25:06.140Z,77087.53
2023-04-17T01:27:36.578Z,77089.56
2023-04-17T01:30:04.028Z,77087.53
2023-04-17T01:32:35.308Z,77083.50
2023-04-17T01:35:02.562Z,77083.50
2023-04-17T01:37:30.145Z,77087.53
2023-04-17T01:39:58.752Z,77081.47
2023-04-17T01:42:26.821Z,77083.50
2023-04-17T01:44:54.183Z,77079.44
2023-04-17T01:47:21.518Z,77087.53
2023-04-17T01:49:48.714Z,77087.53
2023-04-17T01:52:16.859Z,77095.66
2023-04-17T01:54:43.859Z,77091.59
2023-04-17T01:57:11.192Z,77087.53
2023-04-17T01:59:38.197Z,77099.72
2023-04-17T02:02:05.794Z,77099.72
2023-04-17T02:04:33.190Z,77103.75
2023-04-17T02:07:00.481Z,77103.75
2023-04-17T02:09:27.931Z,77107.81
2023-04-17T02:11:56.941Z,77109.84
2023-04-17T02:14:25.030Z,77103.75
2023-04-17T02:16:53.963Z,77101.72
2023-04-17T02:19:21.443Z,77103.75
2023-04-17T02:21:48.985Z,77103.75
2023-04-17T02:24:15.986Z,77103.75
2023-04-17T02:26:43.530Z,77107.81
2023-04-17T02:29:13.176Z,77103.75
2023-04-17T02:31:43.984Z,77099.72
2023-04-17T02:34:11.717Z,77107.81
2023-04-17T02:36:40.386Z,77107.81
2023-04-17T02:39:08.480Z,77117.94
2023-04-17T02:41:35.794Z,77115.94
2023-04-17T02:44:05.447Z,77128.09
2023-04-17T02:46:33.251Z,77132.16
2023-04-17T02:49:00.518Z,77136.19
2023-04-17T02:51:28.144Z,77140.25
2023-04-17T02:53:55.347Z,77148.38
2023-04-17T02:56:22.789Z,77156.47
2023-04-17T02:58:50.264Z,77164.59
2023-04-17T03:01:17.597Z,77168.63
2023-04-17T03:03:47.459Z,77176.75
2023-04-17T03:06:15.883Z,77184.84
2023-04-17T03:08:43.578Z,77192.97
2023-04-17T03:11:10.902Z,77197.03
2023-04-17T03:13:37.857Z,77201.06
2023-04-17T03:16:05.785Z,77201.06
2023-04-17T03:18:35.997Z,77209.19
2023-04-17T03:21:03.572Z,77201.06
2023-04-17T03:23:30.487Z,77199.06
2023-04-17T03:25:57.985Z,77192.97
2023-04-17T03:28:26.058Z,77192.97
2023-04-17T03:30:54.970Z,77192.97
2023-04-17T03:33:22.359Z,77197.03
2023-04-17T03:35:49.597Z,77197.03
2023-04-17T03:38:17.341Z,77201.06
2023-04-17T03:40:45.266Z,77201.06
2023-04-17T03:43:13.140Z,77201.06
2023-04-17T03:45:40.540Z,77205.13
2023-04-17T03:48:07.604Z,77205.13
2023-04-17T03:50:36.179Z,77201.06
2023-04-17T03:53:03.176Z,77197.03
2023-04-17T03:55:31.675Z,77201.06
2023-04-17T03:57:58.883Z,77203.09
2023-04-17T04:00:31.755Z,77201.06
2023-04-17T04:03:05.417Z,77195.00
2023-04-17T04:05:39.639Z,77192.97
2023-04-17T04:08:08.544Z,77188.91
2023-04-17T04:10:45.183Z,77192.97
2023-04-17T04:13:16.829Z,77197.03
2023-04-17T04:15:50.718Z,77201.06
2023-04-17T04:18:20.110Z,77195.00
2023-04-17T04:20:48.410Z,77188.91
2023-04-17T04:23:21.567Z,77192.97
2023-04-17T04:25:49.782Z,77188.91
2023-04-17T04:28:34.046Z,77186.88
2023-04-17T04:31:02.923Z,77188.91
2023-04-17T04:33:36.169Z,77184.84
2023-04-17T04:36:03.724Z,77188.91
2023-04-17T04:38:33.306Z,77192.97
2023-04-17T04:41:20.080Z,77192.97
2023-04-17T04:43:47.142Z,77195.00
2023-04-17T04:46:14.700Z,77190.94
2023-04-17T04:48:45.794Z,77192.97
2023-04-17T04:51:13.354Z,77184.84
2023-04-17T04:53:41.256Z,77180.81
2023-04-17T04:56:08.853Z,77172.69
2023-04-17T04:58:38.735Z,77176.75
2023-04-17T05:01:07.029Z,77176.75
2023-04-17T05:03:41.166Z,77174.72
2023-04-17T05:06:11.422Z,77176.75
2023-04-17T05:08:43.188Z,77168.63
2023-04-17T05:11:12.673Z,77168.63
2023-04-17T05:13:39.795Z,77168.63
2023-04-17T05:16:13.040Z,77162.56
2023-04-17T05:18:40.334Z,77164.59
2023-04-17T05:21:10.975Z,77168.63
2023-04-17T05:23:39.989Z,77160.53
2023-04-17T05:26:07.444Z,77152.41
2023-04-17T05:28:34.614Z,77156.47
2023-04-17T05:31:02.295Z,77158.50
2023-04-17T05:33:34.653Z,77158.50
2023-04-17T05:36:03.202Z,77148.38
2023-04-17T05:38:34.172Z,77128.09
2023-04-17T05:41:03.168Z,77132.16
2023-04-17T05:43:30.528Z,77115.94
2023-04-17T05:45:58.113Z,77111.88
2023-04-17T05:48:25.462Z,77115.94
2023-04-17T05:50:53.587Z,77109.84
2023-04-17T05:53:20.783Z,77099.72
2023-04-17T05:55:55.896Z,77091.59
2023-04-17T05:58:24.773Z,77083.50
2023-04-17T06:00:57.019Z,77077.41
2023-04-17T06:03:27.194Z,77075.38
2023-04-17T06:06:08.852Z,77067.28
2023-04-17T06:08:36.260Z,77063.22
2023-04-17T06:11:05.635Z,77051.06
2023-04-17T06:13:33.736Z,77038.88
2023-04-17T06:16:01.427Z,77042.94
2023-04-17T06:18:28.632Z,77034.84
2023-04-17T06:20:56.140Z,77032.81
2023-04-17T06:23:23.873Z,77034.84
2023-04-17T06:25:51.470Z,77038.88
2023-04-17T06:28:19.729Z,77034.84
2023-04-17T06:30:50.784Z,77036.84
2023-04-17T06:33:19.050Z,77032.81
2023-04-17T06:35:46.551Z,77018.63
2023-04-17T06:38:22.226Z,77010.50
2023-04-17T06:40:51.403Z,76998.34
2023-04-17T06:43:19.832Z,76986.16
2023-04-17T06:45:48.080Z,76986.16
2023-04-17T06:48:15.537Z,76976.03
2023-04-17T06:50:43.786Z,76965.91
2023-04-17T06:53:13.384Z,76953.75
2023-04-17T06:55:40.613Z,76937.53
2023-04-17T06:58:09.452Z,76921.31
2023-04-17T07:00:36.726Z,76901.03
2023-04-17T07:03:05.297Z,76880.75
2023-04-17T07:05:32.596Z,76884.81
2023-04-17T07:07:59.746Z,76886.84
2023-04-17T07:10:27.252Z,76905.09
2023-04-17T07:12:55.174Z,76896.97
2023-04-17T07:15:22.919Z,76892.91
2023-04-17T07:17:49.912Z,76896.97
2023-04-17T07:20:18.047Z,76907.09
2023-04-17T07:22:44.979Z,76913.19
2023-04-17T07:25:12.713Z,76929.41
2023-04-17T07:27:39.639Z,76937.53
2023-04-17T07:30:08.668Z,76933.47
2023-04-17T07:32:36.291Z,76931.44
2023-04-17T07:35:04.630Z,76917.25
2023-04-17T07:37:31.914Z,76919.28
2023-04-17T07:39:59.477Z,76905.09
2023-04-17T07:42:26.443Z,76896.97
2023-04-17T07:44:54.154Z,76888.88
2023-04-17T07:47:21.200Z,76880.75
2023-04-17T07:49:49.229Z,76860.47
2023-04-17T07:52:18.179Z,76850.34
2023-04-17T07:54:45.729Z,76840.22
2023-04-17T07:57:14.992Z,76819.94
2023-04-17T07:59:42.640Z,76821.97
2023-04-17T08:02:10.527Z,76824.00
2023-04-17T08:04:40.341Z,76828.03
2023-04-17T08:07:10.624Z,76828.03
2023-04-17T08:09:40.243Z,76830.06
2023-04-17T08:12:08.860Z,76815.88
2023-04-17T08:14:36.338Z,76807.78
2023-04-17T08:17:04.161Z,76795.59
2023-04-17T08:19:32.128Z,76807.78
2023-04-17T08:22:04.501Z,76811.81
2023-04-17T08:24:32.152Z,76824.00
2023-04-17T08:26:59.034Z,76836.16
2023-04-17T08:29:26.915Z,76856.44
2023-04-17T08:32:12.692Z,76868.59
2023-04-17T08:34:42.343Z,76868.59
2023-04-17T08:37:09.143Z,76868.59
2023-04-17T08:40:06.190Z,76856.44
2023-04-17T08:42:37.465Z,76852.38
2023-04-17T08:45:14.850Z,76828.03
2023-04-17T08:47:43.306Z,76787.50
2023-04-17T08:50:21.987Z,76755.06
2023-04-17T08:52:51.092Z,76757.09
2023-04-17T08:55:21.505Z,76759.13
2023-04-17T08:57:59.475Z,76761.16
2023-04-17T09:00:37.442Z,76751.00
2023-04-17T09:03:09.030Z,76726.69
2023-04-17T09:05:37.569Z,76712.50
2023-04-17T09:08:17.951Z,76682.09
2023-04-17T09:10:50.326Z,76690.19
2023-04-17T09:13:22.308Z,76698.31
2023-04-17T09:16:07.638Z,76696.28
2023-04-17T09:18:35.996Z,76661.81
2023-04-17T09:21:04.560Z,76629.38
2023-04-17T09:23:46.684Z,76627.34
2023-04-17T09:26:16.163Z,76611.13
2023-04-17T09:29:12.174Z,76586.81
2023-04-17T09:31:43.386Z,76576.69
2023-04-17T09:34:12.386Z,76562.50
2023-04-17T09:36:41.821Z,76556.41
2023-04-17T09:39:26.419Z,76584.78
2023-04-17T09:42:03.998Z,76613.16
2023-04-17T09:44:32.094Z,76629.38
2023-04-17T09:47:01.374Z,76653.72
2023-04-17T09:49:49.753Z,76665.88
2023-04-17T09:52:17.836Z,76649.66
2023-04-17T09:54:47.521Z,76643.56
2023-04-17T09:57:15.847Z,76629.38
2023-04-17T09:59:45.690Z,76637.50
2023-04-17T10:02:15.942Z,76645.59
2023-04-17T10:04:45.638Z,76641.53
2023-04-17T10:07:13.944Z,76645.59
2023-04-17T10:09:42.248Z,76661.81
2023-04-17T10:12:15.762Z,76673.97
2023-04-17T10:14:49.933Z,76645.59
2023-04-17T10:17:29.095Z,76633.44
2023-04-17T10:19:56.755Z,76607.09
2023-04-17T10:22:24.904Z,76584.78
2023-04-17T10:25:13.555Z,76576.69
2023-04-17T10:27:41.655Z,76544.25
2023-04-17T10:30:12.679Z,76511.81
2023-04-17T10:32:42.802Z,76501.69
2023-04-17T10:35:16.481Z,76501.69
2023-04-17T10:38:18.605Z,76507.75
2023-04-17T10:40:46.107Z,76513.84
2023-04-17T10:43:14.817Z,76515.88
2023-04-17T10:46:09.949Z,76499.66
2023-04-17T10:48:39.087Z,76471.28
2023-04-17T10:51:21.645Z,76440.88
2023-04-17T10:53:59.988Z,76420.59
2023-04-17T10:56:38.812Z,76430.72
2023-04-17T10:59:11.807Z,76432.75
2023-04-17T11:01:48.272Z,76455.06
2023-04-17T11:04:30.213Z,76451.00
2023-04-17T11:06:57.437Z,76414.50
2023-04-17T11:09:28.037Z,76394.25
2023-04-17T11:11:59.020Z,76361.81
2023-04-17T11:14:26.731Z,76349.66
2023-04-17T11:16:53.740Z,76333.44
2023-04-17T11:19:23.555Z,76309.13
2023-04-17T11:21:53.698Z,76313.16
2023-04-17T11:24:30.054Z,76313.16
2023-04-17T11:27:00.113Z,76301.00
2023-04-17T11:29:28.371Z,76298.97
2023-04-17T11:31:57.554Z,76317.22
2023-04-17T11:34:26.726Z,76313.16
2023-04-17T11:36:57.253Z,76331.41
2023-04-17T11:39:28.004Z,76341.53
2023-04-17T11:41:57.193Z,76349.66
2023-04-17T11:44:25.906Z,76333.44
2023-04-17T11:46:55.181Z,76345.59
2023-04-17T11:49:33.386Z,76365.88
2023-04-17T11:52:02.161Z,76390.19
2023-04-17T11:54:37.732Z,76390.19
2023-04-17T11:57:14.861Z,76398.28
2023-04-17T11:59:42.865Z,76410.47
2023-04-17T12:02:10.432Z,76398.28
2023-04-17T12:04:40.143Z,76408.44
2023-04-17T12:07:09.107Z,76404.38
2023-04-17T12:09:36.627Z,76446.94
2023-04-17T12:12:08.039Z,76467.22
2023-04-17T12:14:36.169Z,76479.38
2023-04-17T12:17:03.369Z,76491.53
2023-04-17T12:19:32.058Z,76495.59
2023-04-17T12:21:59.972Z,76499.66
2023-04-17T12:24:27.553Z,76487.50
2023-04-17T12:26:54.739Z,76483.44
2023-04-17T12:29:36.183Z,76473.28
2023-04-17T12:32:11.055Z,76471.28
2023-04-17T12:34:38.513Z,76479.38
2023-04-17T12:37:05.667Z,76479.38
2023-04-17T12:39:33.382Z,76483.44
2023-04-17T12:42:00.391Z,76479.38
2023-04-17T12:44:27.783Z,76483.44
2023-04-17T12:46:54.965Z,76491.53
2023-04-17T12:49:23.654Z,76475.31
2023-04-17T12:51:51.509Z,76467.22
2023-04-17T12:54:19.327Z,76451.00
2023-04-17T12:56:46.553Z,76442.91
2023-04-17T12:59:13.774Z,76430.72
2023-04-17T13:01:40.873Z,76428.69
2023-04-17T13:04:08.633Z,76414.50
2023-04-17T13:06:36.331Z,76406.41
2023-04-17T13:09:04.679Z,76402.34
2023-04-17T13:11:32.384Z,76398.28
2023-04-17T13:13:59.981Z,76390.19
2023-04-17T13:16:27.439Z,76382.09
2023-04-17T13:18:54.759Z,76382.09
2023-04-17T13:21:22.067Z,76394.25
2023-04-17T13:23:49.658Z,76402.34
2023-04-17T13:26:16.536Z,76390.19
2023-04-17T13:28:43.924Z,76402.34
2023-04-17T13:31:11.081Z,76394.25
2023-04-17T13:33:40.554Z,76382.09
2023-04-17T13:36:07.717Z,76406.41
2023-04-17T13:38:34.883Z,76390.19
2023-04-17T13:41:01.989Z,76398.28
2023-04-17T13:43:29.613Z,76410.47
2023-04-17T13:45:57.010Z,76414.50
2023-04-17T13:48:24.879Z,76432.75
2023-04-17T13:50:52.060Z,76404.38
2023-04-17T13:53:19.970Z,76355.72
2023-04-17T13:55:46.979Z,76313.16
2023-04-17T13:58:14.567Z,76286.81
2023-04-17T14:00:41.481Z,76288.84
2023-04-17T14:03:09.173Z,76272.63
2023-04-17T14:05:36.408Z,76264.53
2023-04-17T14:08:04.250Z,76248.31
2023-04-17T14:10:31.305Z,76280.72
2023-04-17T14:12:59.067Z,76301.00
2023-04-17T14:15:26.065Z,76321.28
2023-04-17T14:17:53.436Z,76329.38
2023-04-17T14:20:20.734Z,76345.59
2023-04-17T14:22:48.275Z,76347.63
2023-04-17T14:25:16.034Z,76357.75
2023-04-17T14:27:44.610Z,76357.75
2023-04-17T14:30:11.766Z,76345.59
2023-04-17T14:32:39.699Z,76355.72
2023-04-17T14:35:07.047Z,76353.72
2023-04-17T14:37:34.607Z,76349.66
2023-04-17T14:40:01.725Z,76365.88
2023-04-17T14:42:29.077Z,76378.03
2023-04-17T14:44:56.126Z,76390.19
2023-04-17T14:47:23.414Z,76406.41
2023-04-17T14:49:51.074Z,76410.47
2023-04-17T14:52:18.460Z,76410.47
2023-04-17T14:54:46.189Z,76402.34
2023-04-17T14:57:13.870Z,76388.16
2023-04-17T14:59:40.839Z,76378.03
2023-04-17T15:02:08.405Z,76382.09
2023-04-17T15:04:35.559Z,76382.09
2023-04-17T15:07:03.224Z,76414.50
2023-04-17T15:09:30.817Z,76434.78
2023-04-17T15:11:58.192Z,76451.00
2023-04-17T15:14:25.899Z,76479.38
2023-04-17T15:16:54.393Z,76503.69
2023-04-17T15:19:21.448Z,76519.91
2023-04-17T15:21:48.731Z,76538.16
2023-04-17T15:24:15.885Z,76544.25
2023-04-17T15:26:44.993Z,76556.41
2023-04-17T15:29:12.435Z,76560.47
2023-04-17T15:31:40.426Z,76564.50
2023-04-17T15:34:07.453Z,76568.56
2023-04-17T15:36:34.874Z,76576.69
2023-04-17T15:39:02.606Z,76576.69
2023-04-17T15:41:30.352Z,76580.72
2023-04-17T15:43:57.494Z,76582.75
2023-04-17T15:46:24.767Z,76592.91
2023-04-17T15:49:04.860Z,76584.78
2023-04-17T15:51:36.071Z,76592.91
2023-04-17T15:54:03.624Z,76592.91
2023-04-17T15:56:31.090Z,76576.69
2023-04-17T15:58:57.992Z,76564.50
2023-04-17T16:01:26.680Z,76584.78
2023-04-17T16:03:54.034Z,76586.81
2023-04-17T16:06:21.857Z,76596.94
2023-04-17T16:08:49.177Z,76594.91
2023-04-17T16:11:16.634Z,76601.00
2023-04-17T16:13:43.671Z,76596.94
2023-04-17T16:16:10.946Z,76605.06
2023-04-17T16:18:37.913Z,76601.00
2023-04-17T16:21:06.313Z,76605.06
2023-04-17T16:23:33.536Z,76615.19
2023-04-17T16:26:00.850Z,76621.28
2023-04-17T16:28:27.993Z,76645.59
2023-04-17T16:30:55.539Z,76649.66
2023-04-17T16:33:22.445Z,76665.88
2023-04-17T16:35:50.000Z,76673.97
2023-04-17T16:38:17.042Z,76688.16
2023-04-17T16:40:44.510Z,76702.34
2023-04-17T16:43:11.812Z,76710.47
2023-04-17T16:45:39.483Z,76722.63
2023-04-17T16:48:09.006Z,76728.72
2023-04-17T16:50:36.508Z,76738.84
2023-04-17T16:53:03.429Z,76755.06
2023-04-17T16:55:30.905Z,76767.22
2023-04-17T16:58:00.085Z,76773.31
2023-04-17T17:00:27.974Z,76787.50
2023-04-17T17:02:55.500Z,76795.59
2023-04-17T17:05:23.011Z,76803.72
2023-04-17T17:07:50.026Z,76819.94
2023-04-17T17:10:17.456Z,76819.94
2023-04-17T17:12:44.705Z,76832.09
2023-04-17T17:15:12.269Z,76836.16
2023-04-17T17:17:39.373Z,76848.31
2023-04-17T17:20:07.584Z,76852.38
2023-04-17T17:22:34.802Z,76862.50
2023-04-17T17:25:04.253Z,76872.66
2023-04-17T17:27:31.502Z,76876.69
2023-04-17T17:30:00.480Z,76888.88
2023-04-17T17:32:28.121Z,76894.94
2023-04-17T17:34:55.523Z,76905.09
2023-04-17T17:37:23.297Z,76909.13
2023-04-17T17:39:50.447Z,76921.31
2023-04-17T17:42:17.656Z,76925.34
2023-04-17T17:44:44.900Z,76937.53
2023-04-17T17:47:12.355Z,76937.53
2023-04-17T17:49:39.553Z,76945.63
2023-04-17T17:52:07.065Z,76953.75
2023-04-17T17:54:37.862Z,76953.75
2023-04-17T17:57:06.405Z,76955.75
2023-04-17T17:59:34.083Z,76965.91
2023-04-17T18:02:01.960Z,76963.88
2023-04-17T18:04:30.033Z,76969.94
2023-04-17T18:06:57.171Z,76986.16
2023-04-17T18:09:24.409Z,76974.00
2023-04-17T18:11:51.358Z,76980.09
2023-04-17T18:14:18.794Z,76978.06
2023-04-17T18:16:46.057Z,76986.16
2023-04-17T18:19:13.477Z,76990.22
2023-04-17T18:21:40.559Z,76998.34
2023-04-17T18:24:08.085Z,76998.34
2023-04-17T18:26:35.433Z,77002.41
2023-04-17T18:29:03.083Z,77004.41
2023-04-17T18:31:30.497Z,77014.56
2023-04-17T18:34:02.378Z,77026.72
2023-04-17T18:36:29.836Z,77032.81
2023-04-17T18:38:57.483Z,77030.78
2023-04-17T18:41:26.340Z,77038.88
2023-04-17T18:43:53.655Z,77042.94
2023-04-17T18:46:22.294Z,77047.00
2023-04-17T18:48:49.763Z,77055.09
2023-04-17T18:51:17.521Z,77063.22
2023-04-17T18:53:44.979Z,77063.22
2023-04-17T18:56:15.750Z,77065.25
2023-04-17T18:58:43.707Z,77069.28
2023-04-17T19:01:11.060Z,77075.38
2023-04-17T19:03:38.772Z,77075.38
2023-04-17T19:06:06.745Z,77075.38
2023-04-17T19:08:35.008Z,77075.38
2023-04-17T19:11:02.198Z,77071.31
2023-04-17T19:13:29.513Z,77075.38
2023-04-17T19:15:56.540Z,77079.44
2023-04-17T19:18:24.104Z,77081.47
2023-04-17T19:20:51.051Z,77079.44
2023-04-17T19:23:19.083Z,77083.50
2023-04-17T19:25:54.187Z,77083.50
2023-04-17T19:28:22.679Z,77087.53
2023-04-17T19:30:49.861Z,77087.53
2023-04-17T19:33:18.667Z,77087.53
2023-04-17T19:35:46.036Z,77095.66
2023-04-17T19:38:15.431Z,77095.66
2023-04-17T19:40:47.084Z,77097.69
2023-04-17T19:43:14.627Z,77099.72
2023-04-17T19:45:42.260Z,77107.81
2023-04-17T19:48:09.749Z,77103.75
2023-04-17T19:50:36.719Z,77109.84
2023-04-17T19:53:03.945Z,77107.81
2023-04-17T19:55:31.417Z,77115.94
2023-04-17T19:57:59.004Z,77111.88
2023-04-17T20:00:26.093Z,77107.81
2023-04-17T20:02:54.137Z,77117.94
2023-04-17T20:05:21.427Z,77119.97
2023-04-17T20:07:48.582Z,77119.97
2023-04-17T20:10:16.910Z,77128.09
2023-04-17T20:12:44.327Z,77128.09
2023-04-17T20:15:11.901Z,77128.09
2023-04-17T20:17:39.271Z,77136.19
2023-04-17T20:20:06.873Z,77136.19
2023-04-17T20:22:34.016Z,77140.25
2023-04-17T20:25:00.936Z,77148.38
2023-04-17T20:27:28.308Z,77154.44
2023-04-17T20:29:55.350Z,77156.47
2023-04-17T20:32:23.263Z,77164.59
2023-04-17T20:34:50.548Z,77160.53
2023-04-17T20:37:17.998Z,77164.59
2023-04-17T20:39:44.890Z,77168.63
2023-04-17T20:42:12.385Z,77174.72
2023-04-17T20:44:39.682Z,77176.75
2023-04-17T20:47:07.061Z,77176.75
2023-04-17T20:49:34.290Z,77182.84
2023-04-17T20:52:03.095Z,77180.81
2023-04-17T20:54:30.532Z,77184.84
2023-04-17T20:56:58.094Z,77192.97
2023-04-17T20:59:25.195Z,77192.97
2023-04-17T21:01:52.779Z,77188.91
2023-04-17T21:04:20.290Z,77197.03
2023-04-17T21:06:47.560Z,77201.06
2023-04-17T21:09:16.501Z,77199.06
2023-04-17T21:11:43.926Z,77197.03
2023-04-17T21:14:13.780Z,77201.06
2023-04-17T21:16:44.394Z,77197.03
2023-04-17T21:19:12.053Z,77205.13
2023-04-17T21:21:39.465Z,77213.25
2023-04-17T21:24:06.695Z,77217.28
2023-04-17T21:26:33.965Z,77225.41
2023-04-17T21:29:00.971Z,77227.44
2023-04-17T21:31:28.609Z,77235.53
2023-04-17T21:33:55.497Z,77237.56
2023-04-17T21:36:23.091Z,77245.69
2023-04-17T21:38:50.016Z,77235.53
2023-04-17T21:41:17.232Z,77241.63
2023-04-17T21:43:44.199Z,77237.56
2023-04-17T21:46:12.032Z,77233.53
2023-04-17T21:48:39.520Z,77245.69
2023-04-17T21:51:07.004Z,77249.75
2023-04-17T21:53:36.613Z,77253.78
2023-04-17T21:56:06.745Z,77257.84
2023-04-17T21:58:34.210Z,77265.97
2023-04-17T22:01:01.573Z,77274.06
2023-04-17T22:03:28.612Z,77286.22
2023-04-17T22:05:57.429Z,77278.13
2023-04-17T22:08:24.771Z,77286.22
2023-04-17T22:10:52.531Z,77298.41
2023-04-17T22:13:19.862Z,77306.50
2023-04-17T22:15:48.108Z,77314.63
2023-04-17T22:18:15.385Z,77322.72
2023-04-17T22:20:43.051Z,77328.81
2023-04-17T22:23:09.943Z,77338.94
2023-04-17T22:25:37.298Z,77343.00
2023-04-17T22:28:04.195Z,77351.13
2023-04-17T22:30:31.737Z,77359.22
2023-04-17T22:32:58.724Z,77367.34
2023-04-17T22:35:26.945Z,77375.44
2023-04-17T22:37:53.842Z,77375.44
2023-04-17T22:44:40.590Z,77387.59
2023-04-17T22:47:08.304Z,77403.84
2023-04-17T22:49:38.101Z,77389.63
2023-04-17T22:52:06.399Z,77395.72
2023-04-17T22:54:34.451Z,77407.88
2023-04-17T22:57:04.721Z,77411.94
2023-04-17T22:59:31.730Z,77413.97
2023-04-17T23:01:59.125Z,77411.94
2023-04-17T23:04:26.264Z,77407.88
2023-04-17T23:06:53.723Z,77411.94
2023-04-17T23:10:17.421Z,77411.94
2023-04-17T23:13:03.321Z,77416.00
2023-04-17T23:15:30.693Z,77411.94
2023-04-17T23:17:57.813Z,77416.00
2023-04-17T23:20:25.140Z,77407.88
2023-04-17T23:22:53.098Z,77424.09
2023-04-17T23:25:20.125Z,77411.94
2023-04-17T23:27:47.273Z,77409.91
2023-04-17T23:30:14.956Z,77416.00
2023-04-17T23:32:43.271Z,77416.00
2023-04-17T23:35:10.340Z,77411.94
2023-04-17T23:37:37.561Z,77411.94
2023-04-17T23:40:07.655Z,77405.84
2023-04-17T23:42:34.938Z,77411.94
2023-04-17T23:45:01.845Z,77407.88
2023-04-17T23:47:29.968Z,77405.84
2023-04-17T23:49:56.954Z,77403.84
2023-04-17T23:52:24.363Z,77399.78
2023-04-17T23:54:51.403Z,77403.84
2023-04-17T23:57:18.565Z,77403.84
2023-04-17T23:59:45.670Z,77399.78
